Time;durP1;ratioP1;P1;durP2;ratioP2;P2;SDS_P1;SDS_P2;PMS_P1;PMS_P2;Temp;Humidity;BMP_temperature;BMP_pressure;BME280_temperature;BME280_humidity;BME280_pressure;Samples;Min_cycle;Max_cycle;Signal;HPM_P1;HPM_P2
2023/04/08 00:01:01;;;;;;;33.28;14.73;;;;;;;3.71;100.00;98837.03;4469721;32;20108;-66
2023/04/08 00:03:29;;;;;;;34.55;15.30;;;;;;;3.75;100.00;98840.25;4469675;32;20115;-66
2023/04/08 00:05:56;;;;;;;38.15;15.85;;;;;;;3.81;100.00;98837.28;4469661;32;20088;-66
2023/04/08 00:08:23;;;;;;;32.80;14.10;;;;;;;3.67;100.00;98838.12;4469445;32;20144;-66
2023/04/08 00:10:51;;;;;;;36.78;14.63;;;;;;;3.50;100.00;98839.12;4469942;32;20093;-66
2023/04/08 00:13:18;;;;;;;32.97;13.50;;;;;;;3.61;100.00;98835.91;4469672;32;20584;-66
2023/04/08 00:15:45;;;;;;;32.50;14.68;;;;;;;3.64;100.00;98840.91;4469556;32;20138;-66
2023/04/08 00:18:14;;;;;;;31.95;14.23;;;;;;;3.62;100.00;98837.53;4469526;32;20109;-66
2023/04/08 00:20:42;;;;;;;34.72;15.13;;;;;;;3.61;100.00;98843.66;4469658;32;20121;-66
2023/04/08 00:23:09;;;;;;;34.72;15.68;;;;;;;3.55;100.00;98850.03;4469519;32;20118;-66
2023/04/08 00:25:37;;;;;;;35.55;14.98;;;;;;;3.55;100.00;98848.28;4469537;32;20088;-66
2023/04/08 00:28:04;;;;;;;32.10;15.75;;;;;;;3.58;100.00;98844.66;4469390;32;20123;-66
2023/04/08 00:30:31;;;;;;;31.33;13.95;;;;;;;3.43;100.00;98843.81;4469356;32;20112;-66
2023/04/08 00:32:59;;;;;;;34.30;14.38;;;;;;;3.45;100.00;98847.16;4469780;32;20105;-66
2023/04/08 00:35:26;;;;;;;34.60;15.20;;;;;;;3.49;100.00;98850.41;4469492;32;20111;-66
2023/04/08 00:37:54;;;;;;;40.35;15.48;;;;;;;3.33;100.00;98838.34;4469313;32;20118;-66
2023/04/08 00:40:21;;;;;;;34.72;14.60;;;;;;;3.41;100.00;98843.09;4469254;32;20104;-66
2023/04/08 00:42:48;;;;;;;35.20;14.18;;;;;;;3.54;100.00;98845.78;4468949;32;20497;-66
2023/04/08 00:45:16;;;;;;;31.02;13.95;;;;;;;3.68;100.00;98840.63;4468503;32;20088;-66
2023/04/08 00:47:45;;;;;;;37.47;15.43;;;;;;;3.66;100.00;98839.84;4469315;32;20097;-66
2023/04/08 00:50:12;;;;;;;31.95;14.93;;;;;;;3.66;100.00;98841.63;4469292;32;20097;-66
2023/04/08 00:52:39;;;;;;;36.65;16.15;;;;;;;3.63;100.00;98842.63;4469543;32;20383;-66
2023/04/08 00:55:07;;;;;;;34.25;14.68;;;;;;;3.70;100.00;98848.28;4469350;32;20096;-66
2023/04/08 00:57:35;;;;;;;29.23;14.57;;;;;;;3.61;100.00;98848.84;4469267;32;20164;-66
2023/04/08 01:00:04;;;;;;;35.33;15.45;;;;;;;3.63;100.00;98847.81;4467679;32;20168;-66
2023/04/08 01:02:42;;;;;;;33.80;14.65;;;;;;;3.60;100.00;98847.16;4469540;32;20113;-66
2023/04/08 01:05:38;;;;;;;37.67;14.23;;;;;;;3.68;100.00;98847.53;4468796;32;20132;-66
2023/04/08 01:08:06;;;;;;;34.13;14.70;;;;;;;3.67;100.00;98841.53;4468912;32;20143;-66
2023/04/08 01:10:36;;;;;;;34.45;15.07;;;;;;;3.66;100.00;98847.63;4467833;32;20109;-66
2023/04/08 01:13:07;;;;;;;29.85;13.68;;;;;;;3.55;100.00;98845.69;4467812;32;20108;-66
2023/04/08 01:15:37;;;;;;;31.20;13.93;;;;;;;3.60;100.00;98840.22;4467838;32;20179;-66
2023/04/08 01:18:07;;;;;;;31.95;14.13;;;;;;;3.61;100.00;98841.06;4467778;32;20115;-66
2023/04/08 01:20:34;;;;;;;32.30;13.35;;;;;;;3.41;100.00;98839.62;4467501;32;20173;-66
2023/04/08 01:23:19;;;;;;;30.92;13.32;;;;;;;3.47;100.00;98837.53;4469011;32;20089;-66
2023/04/08 01:25:56;;;;;;;26.08;12.50;;;;;;;3.49;100.00;98853.00;4468845;32;20102;-66
2023/04/08 01:28:27;;;;;;;35.53;14.82;;;;;;;3.50;100.00;98842.53;4468859;32;20085;-66
2023/04/08 01:30:57;;;;;;;32.20;14.57;;;;;;;3.60;100.00;98848.00;4467361;32;20911;-66
2023/04/08 01:33:27;;;;;;;27.90;13.43;;;;;;;3.54;100.00;98843.19;4467999;32;20100;-66
2023/04/08 01:35:55;;;;;;;30.90;14.13;;;;;;;3.34;100.00;98840.00;4468803;32;20104;-66
2023/04/08 01:38:25;;;;;;;28.65;12.50;;;;;;;3.40;100.00;98838.81;4467511;32;20122;-66
2023/04/08 01:40:54;;;;;;;28.12;12.07;;;;;;;3.40;100.00;98843.19;4467734;32;20119;-66
2023/04/08 01:43:23;;;;;;;31.05;13.43;;;;;;;3.38;100.00;98838.91;4467401;32;20158;-66
2023/04/08 01:45:53;;;;;;;29.50;13.93;;;;;;;3.43;100.00;98843.00;4468710;32;20478;-66
2023/04/08 01:48:21;;;;;;;30.48;13.13;;;;;;;3.40;100.00;98832.81;4468586;32;20116;-66
2023/04/08 01:50:50;;;;;;;27.90;12.93;;;;;;;3.33;100.00;98837.50;4468433;32;20096;-66
2023/04/08 01:53:17;;;;;;;28.05;13.00;;;;;;;3.27;100.00;98841.31;4467185;32;20166;-66
2023/04/08 01:55:44;;;;;;;30.17;13.25;;;;;;;3.19;100.00;98835.72;4469418;32;20100;-66
2023/04/08 01:58:18;;;;;;;29.12;12.07;;;;;;;3.18;100.00;98839.25;4469360;32;20092;-66
2023/04/08 02:00:45;;;;;;;32.97;14.13;;;;;;;3.21;100.00;98841.66;4470464;32;20457;-66
2023/04/08 02:03:13;;;;;;;33.13;13.75;;;;;;;3.19;100.00;98838.31;4470532;32;20093;-66
2023/04/08 02:05:41;;;;;;;32.47;13.55;;;;;;;3.16;100.00;98835.91;4469252;32;20120;-66
2023/04/08 02:08:09;;;;;;;30.60;13.23;;;;;;;3.12;100.00;98839.56;4470393;32;20105;-66
2023/04/08 02:10:36;;;;;;;30.08;12.65;;;;;;;3.09;100.00;98844.94;4470550;32;20092;-66
2023/04/08 02:13:04;;;;;;;29.17;13.00;;;;;;;3.07;100.00;98841.59;4470534;32;20158;-66
2023/04/08 02:15:37;;;;;;;31.77;14.02;;;;;;;3.22;100.00;98840.72;4469270;32;20400;-66
2023/04/08 02:18:09;;;;;;;33.10;14.63;;;;;;;3.15;100.00;98840.25;4469555;32;20123;-66
2023/04/08 02:20:50;;;;;;;31.40;13.73;;;;;;;3.20;100.00;98847.75;4469032;32;20105;-66
2023/04/08 02:23:22;;;;;;;36.78;14.60;;;;;;;3.03;100.00;98843.56;4469256;32;20446;-66
2023/04/08 02:25:49;;;;;;;36.40;16.12;;;;;;;3.15;100.00;98842.00;4470571;32;20490;-66
2023/04/08 02:28:17;;;;;;;34.67;14.23;;;;;;;3.08;100.00;98838.09;4469199;32;20119;-66
2023/04/08 02:30:49;;;;;;;24.40;12.43;;;;;;;3.20;100.00;98842.56;4468935;32;20120;-66
2023/04/08 02:33:19;;;;;;;30.37;12.15;;;;;;;3.17;100.00;98837.56;4470394;32;20089;-66
2023/04/08 02:35:48;;;;;;;32.10;13.93;;;;;;;3.12;100.00;98839.56;4468973;32;20092;-66
2023/04/08 02:38:15;;;;;;;29.95;14.00;;;;;;;3.12;100.00;98839.56;4469165;32;20149;-66
2023/04/08 02:40:42;;;;;;;33.40;14.20;;;;;;;3.13;100.00;98834.31;4470433;32;20105;-66
2023/04/08 02:43:10;;;;;;;29.95;12.65;;;;;;;3.15;100.00;98834.22;4470102;32;20553;-66
2023/04/08 02:45:42;;;;;;;36.05;14.55;;;;;;;3.25;100.00;98825.00;4470015;32;20148;-66
2023/04/08 02:48:10;;;;;;;37.00;15.57;;;;;;;3.26;100.00;98836.22;4470211;32;20097;-66
2023/04/08 02:50:38;;;;;;;32.92;13.68;;;;;;;3.02;100.00;98831.53;4470140;32;20081;-66
2023/04/08 02:53:07;;;;;;;35.92;14.43;;;;;;;3.05;100.00;98840.88;4470096;32;20108;-66
2023/04/08 02:55:34;;;;;;;31.80;14.40;;;;;;;3.06;100.00;98835.59;4470263;32;20466;-66
2023/04/08 02:58:02;;;;;;;36.33;14.82;;;;;;;3.02;100.00;98840.09;4470048;32;20093;-66
2023/04/08 03:00:29;;;;;;;28.58;14.30;;;;;;;3.06;100.00;98838.19;4470078;32;20104;-66
2023/04/08 03:02:56;;;;;;;35.63;14.00;;;;;;;3.15;100.00;98844.56;4470151;32;20132;-66
2023/04/08 03:05:26;;;;;;;36.75;14.80;;;;;;;3.08;100.00;98836.34;4469960;32;20096;-66
2023/04/08 03:07:53;;;;;;;32.03;13.85;;;;;;;3.09;100.00;98843.19;4469301;32;20107;-66
2023/04/08 03:10:20;;;;;;;32.38;13.95;;;;;;;3.13;100.00;98839.50;4469980;32;20089;-66
2023/04/08 03:12:47;;;;;;;36.08;14.68;;;;;;;3.11;100.00;98843.09;4469863;32;20175;-66
2023/04/08 03:15:14;;;;;;;33.28;14.10;;;;;;;3.08;100.00;98844.09;4470158;32;20126;-66
2023/04/08 03:17:42;;;;;;;35.90;14.70;;;;;;;3.10;100.00;98839.66;4469959;32;20153;-66
2023/04/08 03:20:09;;;;;;;35.47;14.15;;;;;;;3.12;100.00;98844.75;4470121;32;20108;-66
2023/04/08 03:22:36;;;;;;;31.33;14.32;;;;;;;3.19;100.00;98843.50;4468773;32;20152;-66
2023/04/08 03:25:04;;;;;;;31.30;12.93;;;;;;;3.21;100.00;98839.06;4470041;32;20160;-66
2023/04/08 03:27:31;;;;;;;29.67;13.00;;;;;;;3.12;100.00;98844.75;4470081;32;20101;-66
2023/04/08 03:29:58;;;;;;;33.08;14.48;;;;;;;3.22;100.00;98851.06;4469822;32;20104;-66
2023/04/08 03:32:26;;;;;;;29.35;12.98;;;;;;;3.15;100.00;98842.00;4469918;32;20137;-66
2023/04/08 03:34:53;;;;;;;33.13;13.23;;;;;;;3.29;100.00;98852.41;4469803;32;20479;-66
2023/04/08 03:37:20;;;;;;;27.85;11.70;;;;;;;3.12;100.00;98850.78;4469689;32;20097;-66
2023/04/08 03:39:47;;;;;;;30.02;13.55;;;;;;;3.23;100.00;98854.50;4469908;32;20093;-66
2023/04/08 03:42:14;;;;;;;30.77;14.02;;;;;;;3.23;100.00;98857.94;4470116;32;20114;-66
2023/04/08 03:44:41;;;;;;;28.27;11.88;;;;;;;3.22;100.00;98853.66;4470237;32;20123;-66
2023/04/08 03:47:09;;;;;;;28.38;11.95;;;;;;;3.23;100.00;98855.34;4470195;32;20469;-66
2023/04/08 03:49:36;;;;;;;28.15;11.50;;;;;;;3.28;100.00;98861.06;4469950;32;20154;-66
2023/04/08 03:52:03;;;;;;;36.05;14.40;;;;;;;3.20;100.00;98864.09;4470061;32;20445;-66
2023/04/08 03:54:30;;;;;;;27.95;12.65;;;;;;;3.07;100.00;98862.31;4469804;32;20526;-66
2023/04/08 03:56:58;;;;;;;30.90;13.23;;;;;;;3.20;100.00;98864.09;4469626;32;20503;-66
2023/04/08 03:59:25;;;;;;;31.30;13.35;;;;;;;3.31;100.00;98870.44;4469582;32;20176;-66
2023/04/08 04:01:52;;;;;;;32.10;12.90;;;;;;;3.18;100.00;98867.72;4469602;32;20418;-66
2023/04/08 04:04:20;;;;;;;36.47;14.52;;;;;;;3.25;100.00;98876.78;4469700;32;20517;-66
2023/04/08 04:06:47;;;;;;;28.70;13.02;;;;;;;3.20;100.00;98871.06;4469309;32;20109;-66
2023/04/08 04:09:15;;;;;;;29.67;12.18;;;;;;;3.10;100.00;98872.50;4469516;32;20421;-66
2023/04/08 04:11:43;;;;;;;31.90;12.63;;;;;;;3.13;100.00;98878.31;4469597;32;20104;-66
2023/04/08 04:14:12;;;;;;;30.83;12.85;;;;;;;3.15;100.00;98881.66;4468242;32;20096;-66
2023/04/08 04:16:39;;;;;;;26.98;13.00;;;;;;;3.01;100.00;98884.19;4469518;32;20112;-66
2023/04/08 04:19:06;;;;;;;33.95;14.07;;;;;;;3.05;100.00;98883.09;4469379;32;20207;-66
2023/04/08 04:21:33;;;;;;;34.08;13.43;;;;;;;3.00;100.00;98887.72;4469378;32;20093;-66
2023/04/08 04:24:00;;;;;;;33.35;13.05;;;;;;;3.01;100.00;98879.87;4469391;32;20168;-66
2023/04/08 04:26:27;;;;;;;33.95;12.85;;;;;;;3.12;100.00;98875.81;4469681;32;20101;-66
2023/04/08 04:28:55;;;;;;;23.87;11.75;;;;;;;3.22;100.00;98884.72;4469438;32;20123;-66
2023/04/08 04:31:25;;;;;;;24.77;12.00;;;;;;;3.32;100.00;98891.06;4469374;32;20132;-66
2023/04/08 04:33:53;;;;;;;29.58;12.37;;;;;;;3.28;100.00;98886.97;4469450;32;20193;-66
2023/04/08 04:36:20;;;;;;;24.87;12.40;;;;;;;3.29;100.00;98890.41;4469387;32;20152;-66
2023/04/08 04:38:49;;;;;;;25.15;11.73;;;;;;;3.29;100.00;98891.22;4469214;32;20089;-66
2023/04/08 04:41:17;;;;;;;33.58;13.40;;;;;;;3.13;100.00;98891.25;4469349;32;20104;-66
2023/04/08 04:43:44;;;;;;;29.67;12.00;;;;;;;3.14;100.00;98895.53;4469378;32;20076;-66
2023/04/08 04:46:11;;;;;;;28.17;12.60;;;;;;;3.15;100.00;98893.75;4469210;32;20084;-66
2023/04/08 04:48:39;;;;;;;26.70;11.73;;;;;;;3.17;100.00;98895.34;4469357;32;20154;-66
2023/04/08 04:51:06;;;;;;;27.30;12.15;;;;;;;3.26;100.00;98899.19;4469376;32;20111;-67
2023/04/08 04:53:33;;;;;;;27.62;11.02;;;;;;;3.22;100.00;98895.09;4469213;32;20212;-66
2023/04/08 04:56:01;;;;;;;27.77;12.57;;;;;;;3.18;100.00;98902.19;4469214;32;20515;-66
2023/04/08 04:58:29;;;;;;;25.20;11.60;;;;;;;3.20;100.00;98895.16;4469153;32;20123;-66
2023/04/08 05:00:56;;;;;;;27.80;12.68;;;;;;;3.08;100.00;98895.06;4469154;32;20176;-66
2023/04/08 05:03:24;;;;;;;22.42;10.20;;;;;;;3.12;100.00;98892.19;4469240;32;20122;-66
2023/04/08 05:05:52;;;;;;;28.80;11.40;;;;;;;3.20;100.00;98896.94;4469148;32;20111;-66
2023/04/08 05:08:20;;;;;;;24.48;11.05;;;;;;;3.30;100.00;98899.81;4469163;32;20123;-66
2023/04/08 05:10:50;;;;;;;23.42;10.90;;;;;;;3.44;100.00;98897.28;4469294;32;20084;-66
2023/04/08 05:13:17;;;;;;;25.75;10.63;;;;;;;3.46;100.00;98902.38;4468971;32;20084;-66
2023/04/08 05:15:45;;;;;;;21.90;10.07;;;;;;;3.45;100.00;98900.69;4469021;32;20121;-66
2023/04/08 05:18:13;;;;;;;29.02;11.48;;;;;;;3.49;100.00;98894.44;4468908;32;20093;-66
2023/04/08 05:20:40;;;;;;;27.10;10.10;;;;;;;3.49;100.00;98899.59;4469084;32;20085;-66
2023/04/08 05:23:09;;;;;;;26.10;11.00;;;;;;;3.34;100.00;98907.31;4469131;32;20558;-66
2023/04/08 05:25:37;;;;;;;24.17;11.18;;;;;;;3.41;100.00;98906.97;4468958;32;20206;-66
2023/04/08 05:28:04;;;;;;;25.67;9.90;;;;;;;3.42;100.00;98913.81;4468978;32;20470;-66
2023/04/08 05:30:31;;;;;;;29.35;10.93;;;;;;;3.45;100.00;98913.66;4468104;32;20097;-66
2023/04/08 05:32:59;;;;;;;24.17;10.05;;;;;;;3.57;100.00;98918.13;4468792;32;20168;-66
2023/04/08 05:35:27;;;;;;;21.67;9.32;;;;;;;3.65;100.00;98928.88;4468880;32;20115;-66
2023/04/08 05:37:54;;;;;;;30.23;11.32;;;;;;;3.63;100.00;98922.94;4468720;32;20176;-66
2023/04/08 05:40:22;;;;;;;19.90;8.93;;;;;;;3.37;100.00;98927.88;4468739;32;20111;-66
2023/04/08 05:42:49;;;;;;;29.15;11.63;;;;;;;3.34;100.00;98929.81;4468668;32;20092;-66
2023/04/08 05:45:16;;;;;;;23.92;10.50;;;;;;;3.33;100.00;98928.97;4468645;32;20458;-66
2023/04/08 05:47:44;;;;;;;27.92;10.23;;;;;;;3.37;100.00;98922.69;4468601;32;20129;-66
2023/04/08 05:50:11;;;;;;;24.37;9.98;;;;;;;3.43;100.00;98933.63;4468557;32;20109;-66
2023/04/08 05:52:43;;;;;;;23.27;10.88;;;;;;;3.51;100.00;98929.69;4468723;32;20255;-66
2023/04/08 05:55:12;;;;;;;17.02;9.05;;;;;;;3.40;100.00;98929.44;4468531;32;20117;-66
2023/04/08 05:57:39;;;;;;;21.02;9.88;;;;;;;3.31;100.00;98929.97;4468473;32;20112;-66
2023/04/08 06:00:08;;;;;;;24.02;11.57;;;;;;;3.38;100.00;98939.06;4468439;32;20176;-66
2023/04/08 06:02:37;;;;;;;25.42;10.55;;;;;;;3.42;100.00;98942.31;4468380;32;20462;-66
2023/04/08 06:05:05;;;;;;;23.83;11.07;;;;;;;3.37;100.00;98943.41;4468179;32;20153;-66
2023/04/08 06:07:33;;;;;;;24.45;11.20;;;;;;;3.51;100.00;98940.03;4468222;32;20161;-66
2023/04/08 06:10:01;;;;;;;21.50;9.65;;;;;;;3.46;100.00;98936.88;4468404;32;20451;-66
2023/04/08 06:12:29;;;;;;;20.85;9.05;;;;;;;3.49;100.00;98935.88;4468539;32;20092;-66
2023/04/08 06:14:56;;;;;;;18.70;8.80;;;;;;;3.65;100.00;98947.03;4468059;32;20089;-66
2023/04/08 06:17:24;;;;;;;19.77;8.80;;;;;;;3.63;100.00;98945.44;4468260;32;20832;-66
2023/04/08 06:19:51;;;;;;;18.58;9.65;;;;;;;3.64;100.00;98947.09;4468188;32;20096;-66
2023/04/08 06:22:18;;;;;;;21.75;8.85;;;;;;;3.43;100.00;98942.22;4468182;32;20531;-66
2023/04/08 06:24:46;;;;;;;25.15;10.20;;;;;;;3.57;100.00;98946.59;4467998;32;20194;-66
2023/04/08 06:27:14;;;;;;;24.05;9.27;;;;;;;3.63;100.00;98956.63;4467910;32;20139;-66
2023/04/08 06:29:41;;;;;;;23.55;10.23;;;;;;;3.62;100.00;98951.53;4467940;32;20192;-66
2023/04/08 06:32:10;;;;;;;18.95;8.70;;;;;;;3.72;100.00;98952.66;4468189;32;20097;-66
2023/04/08 06:34:37;;;;;;;18.48;8.55;;;;;;;3.82;100.00;98948.63;4468253;32;20552;-66
2023/04/08 06:37:05;;;;;;;18.20;8.60;;;;;;;3.72;100.00;98953.53;4468083;32;20120;-66
2023/04/08 06:39:33;;;;;;;23.20;9.18;;;;;;;3.70;100.00;98950.16;4467941;32;20458;-66
2023/04/08 06:42:00;;;;;;;17.58;9.30;;;;;;;3.78;100.00;98957.50;4468600;32;20096;-66
2023/04/08 06:44:31;;;;;;;20.77;9.48;;;;;;;3.83;100.00;98955.47;4470628;32;20114;-66
2023/04/08 06:46:58;;;;;;;16.62;8.45;;;;;;;3.79;100.00;98955.75;4470307;32;20165;-66
2023/04/08 06:49:26;;;;;;;17.15;8.40;;;;;;;3.78;100.00;98959.25;4470096;32;20100;-66
2023/04/08 06:51:53;;;;;;;21.25;9.00;;;;;;;3.85;100.00;98964.00;4470206;32;20096;-66
2023/04/08 06:54:20;;;;;;;18.98;8.32;;;;;;;3.89;100.00;98954.25;4468767;32;20142;-66
2023/04/08 06:56:47;;;;;;;19.55;9.18;;;;;;;3.85;100.00;98963.16;4470137;32;20096;-66
2023/04/08 06:59:15;;;;;;;17.92;7.57;;;;;;;3.85;100.00;98968.34;4470066;32;20123;-66
2023/04/08 07:01:42;;;;;;;14.87;7.53;;;;;;;3.77;100.00;98970.53;4470149;32;20224;-66
2023/04/08 07:04:10;;;;;;;19.77;8.32;;;;;;;3.72;100.00;98971.66;4470109;32;20115;-66
2023/04/08 07:06:37;;;;;;;18.33;8.38;;;;;;;3.71;100.00;98969.97;4469882;32;20104;-66
2023/04/08 07:09:05;;;;;;;17.60;9.27;;;;;;;3.98;100.00;98977.06;4470107;32;20097;-66
2023/04/08 07:11:32;;;;;;;22.35;8.30;;;;;;;3.89;100.00;98980.19;4470043;32;20095;-66
2023/04/08 07:13:59;;;;;;;19.48;8.10;;;;;;;4.05;100.00;98977.53;4470039;32;20105;-66
2023/04/08 07:16:27;;;;;;;20.55;9.02;;;;;;;4.11;100.00;98977.16;4469872;32;20165;-66
2023/04/08 07:18:54;;;;;;;18.33;8.05;;;;;;;4.12;100.00;98978.00;4469965;32;20127;-66
2023/04/08 07:21:21;;;;;;;16.50;8.63;;;;;;;3.89;100.00;98990.53;4470034;32;20076;-66
2023/04/08 07:23:49;;;;;;;22.42;10.60;;;;;;;3.91;100.00;98988.72;4470012;32;20119;-66
2023/04/08 07:26:16;;;;;;;24.10;10.43;;;;;;;3.98;100.00;98984.00;4469778;32;20435;-66
2023/04/08 07:28:43;;;;;;;21.17;8.85;;;;;;;3.96;100.00;98991.88;4469755;32;20466;-66
2023/04/08 07:31:12;;;;;;;18.33;9.27;;;;;;;4.02;100.00;98994.09;4469826;32;20085;-66
2023/04/08 07:33:40;;;;;;;18.67;8.48;;;;;;;3.95;100.00;98992.81;4469912;32;20146;-66
2023/04/08 07:36:11;;;;;;;19.23;7.97;;;;;;;4.20;100.00;98996.53;4469942;32;20113;-66
2023/04/08 07:38:39;;;;;;;18.83;8.80;;;;;;;4.19;100.00;99002.63;4469943;32;20080;-67
2023/04/08 07:41:07;;;;;;;17.55;8.82;;;;;;;4.35;100.00;99002.56;4469900;32;20092;-66
2023/04/08 07:43:35;;;;;;;18.37;7.78;;;;;;;4.33;100.00;99012.19;4469984;32;20105;-66
2023/04/08 07:46:04;;;;;;;18.65;8.10;;;;;;;4.19;100.00;99013.00;4469874;32;20098;-66
2023/04/08 07:48:33;;;;;;;17.55;8.60;;;;;;;4.04;100.00;99013.00;4469838;32;20115;-66
2023/04/08 07:51:04;;;;;;;19.17;8.77;;;;;;;4.03;100.00;99016.50;4469804;32;20608;-67
2023/04/08 07:53:38;;;;;;;18.35;7.70;;;;;;;4.19;100.00;99016.44;4469537;32;20077;-66
2023/04/08 07:56:17;;;;;;;10.23;4.62;;;;;;;4.21;100.00;99031.91;4469928;32;20093;-66
2023/04/08 07:58:45;;;;;;;17.85;7.57;;;;;;;4.31;100.00;99022.66;4469977;32;20162;-66
2023/04/08 08:01:21;;;;;;;14.75;7.43;;;;;;;4.33;100.00;99030.34;4469701;32;20096;-66
2023/04/08 08:03:49;;;;;;;13.40;5.85;;;;;;;4.48;100.00;99021.66;4470228;32;20111;-66
2023/04/08 08:06:17;;;;;;;12.43;6.47;;;;;;;4.44;100.00;99020.19;4469472;32;20132;-66
2023/04/08 08:08:45;;;;;;;12.93;7.00;;;;;;;4.49;100.00;99025.09;4469470;32;20104;-66
2023/04/08 08:11:12;;;;;;;15.75;6.70;;;;;;;4.45;100.00;99029.59;4469608;32;20135;-66
2023/04/08 08:13:40;;;;;;;13.43;6.25;;;;;;;4.44;100.00;99030.56;4469680;32;20085;-66
2023/04/08 08:16:10;;;;;;;12.80;6.15;;;;;;;4.28;100.00;99030.63;4469598;32;20132;-66
2023/04/08 08:18:38;;;;;;;14.82;7.25;;;;;;;4.26;100.00;99027.28;4469890;32;20156;-66
2023/04/08 08:21:07;;;;;;;11.65;6.57;;;;;;;4.23;100.00;99030.88;4469571;32;20088;-66
2023/04/08 08:23:34;;;;;;;13.68;6.30;;;;;;;4.37;100.00;99032.66;4469573;32;20093;-66
2023/04/08 08:26:06;;;;;;;13.02;6.97;;;;;;;4.51;100.00;99039.66;4469448;32;20166;-66
2023/04/08 08:28:33;;;;;;;13.23;6.30;;;;;;;4.59;100.00;99034.00;4469613;32;20104;-66
2023/04/08 08:31:01;;;;;;;13.68;6.07;;;;;;;4.73;100.00;99044.34;4469212;32;20100;-66
2023/04/08 08:33:28;;;;;;;11.18;5.95;;;;;;;4.68;100.00;99045.56;4469542;32;20253;-66
2023/04/08 08:35:56;;;;;;;13.05;7.07;;;;;;;4.80;100.00;99044.84;4469443;32;20108;-66
2023/04/08 08:38:24;;;;;;;12.90;5.95;;;;;;;4.76;100.00;99049.34;4469411;32;20145;-66
2023/04/08 08:40:58;;;;;;;10.93;6.10;;;;;;;4.68;100.00;99048.16;4469358;32;20107;-66
2023/04/08 08:43:26;;;;;;;12.50;6.93;;;;;;;4.75;100.00;99052.03;4469482;32;20097;-66
2023/04/08 08:45:53;;;;;;;12.93;6.70;;;;;;;4.68;100.00;99049.00;4469518;32;20153;-66
2023/04/08 08:48:21;;;;;;;15.25;7.50;;;;;;;4.65;100.00;99059.56;4469524;32;20097;-66
2023/04/08 08:50:48;;;;;;;11.82;6.43;;;;;;;4.85;100.00;99054.94;4469686;32;20101;-66
2023/04/08 08:53:15;;;;;;;15.05;7.45;;;;;;;4.80;100.00;99057.81;4469529;32;20096;-66
2023/04/08 08:55:42;;;;;;;12.18;6.82;;;;;;;4.83;100.00;99064.56;4469214;32;20140;-66
2023/04/08 08:58:30;;;;;;;12.35;7.25;;;;;;;4.74;100.00;99066.78;4469407;32;20115;-66
2023/04/08 09:00:57;;;;;;;12.57;6.78;;;;;;;4.84;100.00;99063.63;4469248;32;20131;-66
2023/04/08 09:03:26;;;;;;;13.05;6.78;;;;;;;4.94;100.00;99067.34;4469382;32;20174;-66
2023/04/08 09:05:56;;;;;;;16.92;7.43;;;;;;;4.85;100.00;99070.50;4468178;32;20430;-66
2023/04/08 09:08:26;;;;;;;20.15;10.15;;;;;;;4.51;100.00;99070.78;4469196;32;20108;-66
2023/04/08 09:10:55;;;;;;;25.33;11.82;;;;;;;4.47;100.00;99069.28;4469128;32;20575;-66
2023/04/08 09:13:23;;;;;;;22.85;11.35;;;;;;;4.82;100.00;99073.28;4469332;32;20123;-66
2023/04/08 09:16:05;;;;;;;23.87;12.00;;;;;;;5.06;100.00;99076.97;4469130;32;20117;-67
2023/04/08 09:18:32;;;;;;;29.17;12.52;;;;;;;5.09;100.00;99075.97;4469214;32;20089;-66
2023/04/08 09:21:01;;;;;;;27.90;13.65;;;;;;;5.34;100.00;99080.44;4468953;32;20442;-66
2023/04/08 09:23:49;;;;;;;26.15;11.40;;;;;;;5.42;100.00;99088.59;4467739;32;20123;-66
2023/04/08 09:26:21;;;;;;;23.55;11.30;;;;;;;5.61;100.00;99093.47;4469231;32;20116;-66
2023/04/08 09:29:06;;;;;;;26.80;13.45;;;;;;;5.76;100.00;99091.66;4468916;32;20077;-66
2023/04/08 09:31:56;;;;;;;23.73;12.45;;;;;;;5.73;100.00;99093.63;4468940;32;20161;-66
2023/04/08 09:34:24;;;;;;;19.33;10.43;;;;;;;5.45;100.00;99101.41;4469088;32;20120;-66
2023/04/08 09:36:53;;;;;;;22.90;10.00;;;;;;;5.34;100.00;99096.03;4468801;32;20156;-66
2023/04/08 09:39:20;;;;;;;17.95;8.77;;;;;;;5.10;100.00;99090.59;4468874;32;20149;-66
2023/04/08 09:41:48;;;;;;;13.62;6.97;;;;;;;5.12;100.00;99089.56;4468720;32;20499;-66
2023/04/08 09:44:15;;;;;;;11.52;6.35;;;;;;;4.77;100.00;99096.94;4468819;32;20124;-66
2023/04/08 09:46:49;;;;;;;11.25;5.65;;;;;;;4.51;100.00;99096.72;4468638;32;20160;-66
2023/04/08 09:49:35;;;;;;;13.13;6.35;;;;;;;4.65;100.00;99090.72;4468746;32;20206;-66
2023/04/08 09:52:20;;;;;;;13.52;6.72;;;;;;;4.74;100.00;99097.94;4454581;32;20089;-66
2023/04/08 09:55:00;;;;;;;13.07;6.70;;;;;;;4.92;100.00;99095.13;4468765;32;20093;-66
2023/04/08 09:57:33;;;;;;;11.93;6.25;;;;;;;4.89;100.00;99095.34;4468333;32;20101;-66
2023/04/08 10:00:09;;;;;;;12.77;6.62;;;;;;;4.93;100.00;99097.66;4467338;32;20168;-66
2023/04/08 10:02:55;;;;;;;15.18;7.20;;;;;;;4.92;100.00;99093.41;4467197;32;20089;-66
2023/04/08 10:05:24;;;;;;;13.68;7.25;;;;;;;4.92;100.00;99105.53;4468287;32;20089;-66
2023/04/08 10:07:51;;;;;;;17.73;7.97;;;;;;;4.91;100.00;99103.88;4466839;32;20117;-66
2023/04/08 10:10:19;;;;;;;16.95;6.40;;;;;;;4.85;100.00;99106.84;4468338;32;20447;-66
2023/04/08 10:12:48;;;;;;;13.80;7.32;;;;;;;4.75;100.00;99102.22;4466824;32;20142;-66
2023/04/08 10:15:27;;;;;;;15.35;7.65;;;;;;;4.72;100.00;99114.53;4468324;32;20492;-66
2023/04/08 10:18:17;;;;;;;19.92;9.07;;;;;;;4.86;100.00;99111.09;4470655;32;20109;-66
2023/04/08 10:20:46;;;;;;;14.32;7.32;;;;;;;4.80;100.00;99102.75;4470374;32;20097;-66
2023/04/08 10:23:15;;;;;;;16.90;8.20;;;;;;;4.62;100.00;99109.06;4470371;32;20478;-66
2023/04/08 10:25:48;;;;;;;11.93;6.35;;;;;;;4.71;100.00;99103.31;4470419;32;20131;-66
2023/04/08 10:28:18;;;;;;;17.08;7.87;;;;;;;4.73;100.00;99111.00;4470306;32;20081;-66
2023/04/08 10:30:50;;;;;;;17.92;8.68;;;;;;;4.74;100.00;99110.91;4470200;32;20101;-67
2023/04/08 10:33:21;;;;;;;23.98;10.20;;;;;;;4.76;100.00;99103.88;4470317;32;20428;-66
2023/04/08 10:35:54;;;;;;;18.83;10.27;;;;;;;4.81;100.00;99113.97;4470716;32;20442;-67
2023/04/08 10:38:21;;;;;;;17.08;9.48;;;;;;;4.32;100.00;99102.13;4469992;32;20118;-66
2023/04/08 10:40:50;;;;;;;21.67;10.48;;;;;;;4.46;100.00;99103.91;4469055;32;20559;-66
2023/04/08 10:43:17;;;;;;;19.15;9.57;;;;;;;4.70;100.00;99106.00;4470105;32;20136;-66
2023/04/08 10:45:45;;;;;;;17.55;9.85;;;;;;;4.67;100.00;99109.59;4470312;32;20104;-66
2023/04/08 10:48:21;;;;;;;19.62;9.00;;;;;;;4.59;100.00;99114.44;4470251;32;20081;-66
2023/04/08 10:50:57;;;;;;;19.98;8.73;;;;;;;4.75;100.00;99106.56;4470402;32;20109;-66
2023/04/08 10:53:29;;;;;;;17.08;8.93;;;;;;;4.75;100.00;99106.56;4470122;32;20077;-66
2023/04/08 10:56:14;;;;;;;15.20;8.13;;;;;;;4.86;100.00;99109.34;4470255;32;20453;-66
2023/04/08 10:58:58;;;;;;;21.48;9.85;;;;;;;5.17;100.00;99106.66;4470166;32;20554;-66
2023/04/08 11:01:26;;;;;;;16.57;9.70;;;;;;;5.53;100.00;99115.66;4470263;32;20104;-66
2023/04/08 11:03:53;;;;;;;18.83;9.43;;;;;;;5.75;100.00;99110.78;4470244;32;20118;-67
2023/04/08 11:06:20;;;;;;;17.27;8.63;;;;;;;5.81;100.00;99115.59;4470042;32;20490;-67
2023/04/08 11:08:48;;;;;;;19.48;9.43;;;;;;;5.78;100.00;99120.97;4469961;32;20152;-67
2023/04/08 11:11:15;;;;;;;21.40;10.85;;;;;;;6.28;100.00;99115.22;4470054;32;20160;-66
2023/04/08 11:13:44;;;;;;;17.48;9.48;;;;;;;6.31;100.00;99117.63;4469908;32;20700;-67
2023/04/08 11:16:22;;;;;;;17.95;9.65;;;;;;;6.51;100.00;99116.28;4470123;32;20080;-67
2023/04/08 11:18:50;;;;;;;18.90;7.57;;;;;;;6.79;100.00;99114.44;4469916;32;20157;-67
2023/04/08 11:21:17;;;;;;;15.65;8.57;;;;;;;6.73;100.00;99119.13;4468697;32;20131;-66
2023/04/08 11:23:47;;;;;;;16.85;8.75;;;;;;;6.41;100.00;99121.28;4468690;32;20168;-66
2023/04/08 11:26:15;;;;;;;18.45;9.73;;;;;;;6.24;100.00;99122.41;4468790;32;20099;-66
2023/04/08 11:28:42;;;;;;;18.80;9.73;;;;;;;6.30;100.00;99121.16;4467757;32;20787;-66